Time;durP1;ratioP1;P1;durP2;ratioP2;P2;SDS_P1;SDS_P2;PMS_P1;PMS_P2;Temp;Humidity;BMP_temperature;BMP_pressure;BME280_temperature;BME280_humidity;BME280_pressure;Samples;Min_cycle;Max_cycle;Signal;HPM_P1;HPM_P2
2022/08/14 00:02:05;;;;;;;10.15;3.13;;;19.80;99.90;;;19.02;100.00;101228.03;4952255;28;20049;-75
2022/08/14 00:04:33;;;;;;;10.18;2.70;;;19.80;99.90;;;18.99;100.00;101227.44;4955198;28;20035;-75
2022/08/14 00:06:59;;;;;;;20.85;3.10;;;19.80;99.90;;;18.97;100.00;101224.03;4948899;28;20038;-74
2022/08/14 00:09:25;;;;;;;11.85;3.00;;;19.70;99.90;;;18.94;100.00;101218.91;4940100;28;20713;-74
2022/08/14 00:11:52;;;;;;;17.23;3.33;;;19.70;99.90;;;18.89;100.00;101218.41;4945989;28;20059;-74
2022/08/14 00:14:18;;;;;;;16.52;3.00;;;19.70;99.90;;;18.85;100.00;101215.97;4960406;28;20055;-74
2022/08/14 00:16:44;;;;;;;11.73;2.80;;;19.70;99.90;;;18.87;100.00;101217.66;4949305;28;20510;-75
2022/08/14 00:19:10;;;;;;;14.55;3.22;;;19.70;99.90;;;18.83;100.00;101212.56;4967319;28;20089;-76
2022/08/14 00:21:37;;;;;;;10.75;3.10;;;19.60;99.90;;;18.82;100.00;101210.84;4956684;28;20117;-76
2022/08/14 00:24:03;;;;;;;19.08;2.90;;;19.70;99.90;;;18.80;100.00;101214.59;4968211;28;20514;-74
2022/08/14 00:26:29;;;;;;;17.00;3.50;;;19.60;99.90;;;18.78;100.00;101217.38;4936719;28;20117;-74
2022/08/14 00:28:56;;;;;;;10.15;3.53;;;19.60;99.90;;;18.75;100.00;101216.72;4951301;28;20031;-74
2022/08/14 00:31:22;;;;;;;12.88;2.80;;;19.60;99.90;;;18.75;100.00;101222.06;4965601;28;20066;-76
2022/08/14 00:33:48;;;;;;;18.70;3.00;;;19.50;99.90;;;18.74;100.00;101220.34;4962312;28;20418;-75
2022/08/14 00:36:14;;;;;;;14.63;3.38;;;19.60;99.90;;;18.74;100.00;101210.53;4953720;28;20068;-75
2022/08/14 00:38:40;;;;;;;16.25;2.85;;;19.60;99.90;;;18.73;100.00;101206.16;4956508;28;20041;-75
2022/08/14 00:41:09;;;;;;;16.33;2.95;;;19.50;99.90;;;18.71;100.00;101212.56;4956316;28;20035;-74
2022/08/14 00:43:36;;;;;;;22.73;3.47;;;19.50;99.90;;;18.69;100.00;101201.16;4949605;28;20041;-75
2022/08/14 00:46:06;;;;;;;21.77;3.67;;;19.50;99.90;;;18.67;100.00;101200.44;4939311;28;20085;-76
2022/08/14 00:48:32;;;;;;;11.02;3.15;;;19.50;99.90;;;18.61;100.00;101199.91;4951467;28;20488;-75
2022/08/14 00:50:58;;;;;;;16.38;3.30;;;19.50;99.90;;;18.55;100.00;101197.69;4964171;28;20051;-74
2022/08/14 00:53:27;;;;;;;15.65;3.58;;;19.40;99.90;;;18.54;100.00;101195.13;4999857;23;20136;-78
2022/08/14 00:55:55;;;;;;;16.83;3.22;;;19.30;99.90;;;18.49;100.00;101194.59;4998881;28;20029;-77
2022/08/14 00:58:30;;;;;;;12.35;3.20;;;19.30;99.90;;;18.44;100.00;101189.59;4994352;28;20048;-77
2022/08/14 01:01:04;;;;;;;13.40;3.65;;;19.20;99.90;;;18.37;100.00;101194.53;5012644;28;20037;-77
2022/08/14 01:03:38;;;;;;;19.23;4.38;;;19.20;99.90;;;18.35;100.00;101192.94;4989590;28;20123;-77
2022/08/14 01:06:07;;;;;;;14.20;3.30;;;19.20;99.90;;;18.31;100.00;101197.63;4970688;28;20401;-77
2022/08/14 01:08:37;;;;;;;11.23;3.45;;;19.10;99.90;;;18.31;100.00;101194.97;4985966;28;20891;-77
2022/08/14 01:11:04;;;;;;;13.98;3.22;;;19.20;99.90;;;18.32;100.00;101199.34;4940019;28;20026;-77
2022/08/14 01:13:35;;;;;;;12.35;3.17;;;19.10;99.90;;;18.33;100.00;101198.38;4992922;28;20450;-77
2022/08/14 01:16:07;;;;;;;13.07;3.20;;;19.20;99.90;;;18.34;100.00;101200.09;4995545;28;20484;-77
2022/08/14 01:21:37;;;;;;;12.90;3.45;;;19.20;99.90;;;18.34;100.00;101199.25;4984033;28;20044;-77
2022/08/14 01:24:06;;;;;;;13.38;3.60;;;19.20;99.90;;;18.32;100.00;101201.19;4991394;28;20133;-77
2022/08/14 01:26:34;;;;;;;15.20;3.33;;;19.10;99.90;;;18.31;100.00;101199.44;5001208;28;20041;-78
2022/08/14 01:29:02;;;;;;;12.80;3.50;;;19.10;99.90;;;18.28;100.00;101202.34;5014381;28;20029;-78
2022/08/14 01:31:31;;;;;;;16.17;3.53;;;19.10;99.90;;;18.24;100.00;101196.38;4992077;28;20030;-77
2022/08/14 01:34:02;;;;;;;9.70;3.40;;;19.00;99.90;;;18.22;100.00;101195.63;4997117;28;20037;-77
2022/08/14 01:36:38;;;;;;;11.88;3.50;;;19.00;99.90;;;18.20;100.00;101194.88;4970586;28;20143;-77
2022/08/14 01:39:11;;;;;;;9.23;3.40;;;18.90;99.90;;;18.16;100.00;101190.72;4986849;28;20041;-77
2022/08/14 01:41:40;;;;;;;14.32;3.63;;;18.90;99.90;;;18.09;100.00;101189.47;4979690;28;20108;-77
2022/08/14 01:44:14;;;;;;;14.45;4.20;;;18.90;99.90;;;18.08;100.00;101190.41;4984782;28;20038;-77
2022/08/14 01:46:45;;;;;;;13.18;3.90;;;18.80;99.90;;;18.03;100.00;101188.09;4991713;28;20033;-77
2022/08/14 01:49:14;;;;;;;20.13;4.00;;;18.80;99.90;;;18.01;100.00;101190.00;4971544;28;20029;-77
2022/08/14 01:51:43;;;;;;;15.80;3.80;;;18.80;99.90;;;17.98;100.00;101184.91;4972114;28;20033;-77
2022/08/14 01:54:14;;;;;;;17.17;3.80;;;18.80;99.90;;;17.97;100.00;101180.53;5001611;28;20420;-77
2022/08/14 01:56:41;;;;;;;16.05;3.13;;;18.70;99.90;;;17.93;100.00;101182.56;4965441;28;20046;-77
2022/08/14 01:59:30;;;;;;;14.90;3.30;;;18.70;99.90;;;17.90;100.00;101176.59;4973859;28;20378;-77
2022/08/14 02:02:00;;;;;;;16.40;3.65;;;18.70;99.90;;;17.85;100.00;101181.41;5000117;28;20116;-77
2022/08/14 02:04:33;;;;;;;14.15;3.50;;;18.70;99.90;;;17.81;100.00;101183.38;4964082;28;20044;-77
2022/08/14 02:07:03;;;;;;;16.52;4.13;;;18.60;99.90;;;17.77;100.00;101181.88;4988887;28;20120;-77
2022/08/14 02:09:34;;;;;;;12.13;3.55;;;18.60;99.90;;;17.74;100.00;101180.31;5006763;28;20026;-77
2022/08/14 02:12:04;;;;;;;15.15;3.50;;;18.60;99.90;;;17.72;100.00;101179.56;4987810;28;20112;-77
2022/08/14 02:14:30;;;;;;;16.90;4.20;;;18.50;99.90;;;17.69;100.00;101171.78;4978254;28;20112;-77
2022/08/14 02:16:56;;;;;;;24.00;4.30;;;18.50;99.90;;;17.66;100.00;101168.47;5002053;28;20452;-77
2022/08/14 02:19:26;;;;;;;16.52;4.03;;;18.50;99.90;;;17.63;100.00;101174.88;4979943;28;20041;-77
2022/08/14 02:21:58;;;;;;;16.30;4.25;;;18.50;99.90;;;17.67;100.00;101170.16;4975950;28;20052;-77
2022/08/14 02:24:30;;;;;;;15.65;3.50;;;18.50;99.90;;;17.65;100.00;101167.63;4964117;28;20022;-77
2022/08/14 02:27:03;;;;;;;20.65;3.75;;;18.50;99.90;;;17.68;100.00;101171.88;4994020;28;20034;-77
2022/08/14 02:29:31;;;;;;;12.32;3.70;;;18.50;99.90;;;17.63;100.00;101153.56;4976861;28;20397;-77
2022/08/14 02:31:59;;;;;;;14.90;4.72;;;18.50;99.90;;;17.62;100.00;101162.50;4960370;28;20025;-77
2022/08/14 02:34:30;;;;;;;12.95;4.40;;;18.50;99.90;;;17.61;100.00;101171.47;4956476;28;20030;-77
2022/08/14 02:37:04;;;;;;;22.63;4.20;;;18.40;99.90;;;17.57;100.00;101172.63;4946938;28;20406;-77
2022/08/14 02:39:39;;;;;;;13.90;4.70;;;18.40;99.90;;;17.54;100.00;101160.38;4978379;28;20116;-77
2022/08/14 02:42:08;;;;;;;20.20;4.28;;;18.40;99.90;;;17.54;100.00;101170.19;5011141;28;20102;-77
2022/08/14 02:44:40;;;;;;;20.45;4.07;;;18.40;99.90;;;17.54;100.00;101173.69;4956854;28;20046;-77
2022/08/14 02:47:07;;;;;;;9.77;4.18;;;18.40;99.90;;;17.49;100.00;101165.16;4996362;28;20046;-77
2022/08/14 02:49:34;;;;;;;18.77;4.03;;;18.40;99.90;;;17.49;100.00;101167.81;4968756;28;20068;-77
2022/08/14 02:52:03;;;;;;;19.88;4.72;;;18.40;99.90;;;17.47;100.00;101168.88;4974452;28;20493;-77
2022/08/14 02:54:33;;;;;;;10.70;4.47;;;18.30;99.90;;;17.45;100.00;101165.47;4980497;28;20029;-77
2022/08/14 02:57:00;;;;;;;11.80;4.43;;;18.30;99.90;;;17.44;100.00;101161.97;4978713;28;20045;-77
2022/08/14 02:59:31;;;;;;;12.52;3.67;;;18.30;99.90;;;17.46;100.00;101170.69;4962669;28;20038;-77
2022/08/14 03:01:59;;;;;;;15.68;4.53;;;18.30;99.90;;;17.46;100.00;101161.88;4981680;28;20047;-77
2022/08/14 03:04:27;;;;;;;21.35;4.78;;;18.30;99.90;;;17.40;100.00;101158.66;4989290;28;20616;-78
2022/08/14 03:06:53;;;;;;;12.70;4.22;;;18.30;99.90;;;17.38;100.00;101157.91;5006375;28;20068;-77
2022/08/14 03:09:20;;;;;;;16.70;4.82;;;18.20;99.90;;;17.35;100.00;101160.78;4974379;28;20057;-77
2022/08/14 03:11:46;;;;;;;14.07;5.60;;;18.20;99.90;;;17.31;100.00;101159.28;4978831;28;20103;-77
2022/08/14 03:14:14;;;;;;;25.10;5.25;;;18.20;99.90;;;17.33;100.00;101151.22;4989441;28;20068;-77
2022/08/14 03:16:41;;;;;;;17.35;4.88;;;18.20;99.90;;;17.32;100.00;101145.03;4958927;28;20045;-77
2022/08/14 03:19:08;;;;;;;24.33;5.22;;;18.20;99.90;;;17.32;100.00;101145.03;4984233;28;20033;-77
2022/08/14 03:21:36;;;;;;;11.77;4.70;;;18.20;99.90;;;17.31;100.00;101148.66;4956586;28;20034;-77
2022/08/14 03:26:32;;;;;;;19.35;5.50;;;18.20;99.90;;;17.31;100.00;101148.66;4967965;28;20113;-76
2022/08/14 03:28:58;;;;;;;12.65;4.40;;;18.10;99.90;;;17.29;100.00;101147.91;4982190;28;20048;-77
2022/08/14 03:31:24;;;;;;;12.30;4.75;;;18.10;99.90;;;17.28;100.00;101138.22;4999849;28;20041;-77
2022/08/14 03:33:50;;;;;;;20.70;5.18;;;18.10;99.90;;;17.30;100.00;101140.75;4990280;28;20041;-77
2022/08/14 03:36:21;;;;;;;17.45;5.15;;;18.10;99.90;;;17.28;100.00;101140.88;4973808;28;20493;-77
2022/08/14 03:38:52;;;;;;;12.18;4.70;;;18.10;99.90;;;17.25;100.00;101130.44;4995888;28;20632;-77
2022/08/14 03:41:22;;;;;;;17.52;4.72;;;18.10;99.90;;;17.26;100.00;101142.78;5011243;28;20480;-77
2022/08/14 03:43:57;;;;;;;11.20;4.30;;;18.10;99.90;;;17.28;100.00;101142.66;4968859;28;20034;-77
2022/08/14 03:46:26;;;;;;;15.43;4.90;;;18.10;99.90;;;17.27;100.00;101135.66;4958104;28;20486;-76
2022/08/14 03:48:55;;;;;;;19.05;4.75;;;18.10;99.90;;;17.26;100.00;101129.50;4964461;28;20493;-77
2022/08/14 03:51:27;;;;;;;15.07;4.85;;;18.10;99.90;;;17.28;100.00;101132.91;4994231;28;20437;-77
2022/08/14 03:53:57;;;;;;;27.80;4.78;;;18.10;99.90;;;17.30;100.00;101136.31;5001594;28;20037;-76
2022/08/14 03:56:25;;;;;;;19.42;5.28;;;18.10;99.90;;;17.34;100.00;101134.28;4975564;28;20081;-77
2022/08/14 03:58:55;;;;;;;20.15;4.72;;;18.20;99.90;;;17.37;100.00;101126.94;4967617;28;20042;-77
2022/08/14 04:01:24;;;;;;;13.73;4.60;;;18.20;99.90;;;17.40;100.00;101129.38;4971281;28;20291;-77
2022/08/14 04:03:57;;;;;;;11.20;4.40;;;18.20;99.90;;;17.46;100.00;101127.28;4967153;28;20057;-77
2022/08/14 04:06:23;;;;;;;12.43;4.50;;;18.20;99.90;;;17.51;100.00;101138.44;4988383;28;20135;-77
2022/08/14 04:08:52;;;;;;;18.55;4.57;;;18.30;99.90;;;17.57;100.00;101138.00;4991846;28;20029;-77
2022/08/14 04:11:19;;;;;;;14.70;4.30;;;18.30;99.90;;;17.64;100.00;101139.28;4947951;28;20038;-77
2022/08/14 04:13:46;;;;;;;14.93;4.82;;;18.40;99.90;;;17.72;100.00;101138.75;4982023;28;20105;-77
2022/08/14 04:16:23;;;;;;;12.65;4.50;;;18.40;99.90;;;17.78;100.00;101138.34;4972480;28;21577;-77
2022/08/14 04:18:55;;;;;;;19.58;4.68;;;18.50;99.90;;;17.87;100.00;101144.84;4956797;28;20044;-77
2022/08/14 04:21:26;;;;;;;14.45;4.90;;;18.60;99.90;;;17.98;100.00;101136.94;4995533;28;20037;-77
2022/08/14 04:23:53;;;;;;;12.95;4.30;;;18.70;99.90;;;18.06;100.00;101145.25;4980304;28;20056;-77
2022/08/14 04:26:21;;;;;;;13.30;4.40;;;18.70;99.90;;;18.16;100.00;101143.63;4958493;28;20037;-77
2022/08/14 04:28:52;;;;;;;21.60;4.88;;;18.90;99.90;;;18.28;100.00;101139.22;5014350;28;20067;-77
2022/08/14 04:31:21;;;;;;;14.45;4.30;;;19.00;99.90;;;18.33;100.00;101147.72;4996645;28;20029;-77
2022/08/14 04:33:47;;;;;;;14.05;4.45;;;19.00;99.90;;;18.43;100.00;101137.25;4959318;28;20037;-76
2022/08/14 04:36:13;;;;;;;15.77;4.32;;;19.30;99.90;;;18.91;100.00;101142.59;4992441;28;20026;-77
2022/08/14 04:44:08;;;;;;;8.57;3.33;;;22.50;99.90;;;23.64;87.24;101154.41;4954489;28;20092;-77
2022/08/14 04:46:35;;;;;;;17.67;3.78;;;22.80;99.90;;;23.23;86.44;101156.47;4981084;28;20069;-77
2022/08/14 04:49:03;;;;;;;11.85;3.78;;;23.50;99.90;;;24.71;81.91;101152.06;4967192;28;20068;-77
2022/08/14 04:51:37;;;;;;;10.10;3.45;;;24.40;99.90;;;25.88;74.82;101159.03;4973647;28;20044;-77
2022/08/14 04:54:03;;;;;;;10.05;3.50;;;25.20;99.90;;;26.98;70.36;101157.16;4962453;28;20506;-77
2022/08/14 04:56:29;;;;;;;15.23;3.15;;;26.00;99.90;;;28.01;65.12;101163.75;4950901;28;20076;-77
2022/08/14 04:59:03;;;;;;;15.55;3.80;;;26.80;99.90;;;29.08;62.60;101166.69;4983288;28;20065;-77
2022/08/14 05:01:28;;;;;;;13.38;3.67;;;27.50;99.90;;;29.70;60.05;101170.22;4959759;28;20034;-77
2022/08/14 05:03:54;;;;;;;8.43;2.80;;;28.00;99.90;;;30.10;58.54;101168.88;4961322;28;20641;-77
2022/08/14 05:06:20;;;;;;;11.45;3.05;;;28.50;99.90;;;30.80;56.09;101172.00;4983518;28;20123;-78
2022/08/14 05:08:47;;;;;;;10.70;3.22;;;29.00;99.90;;;31.54;54.70;101179.81;4978758;28;20041;-77
2022/08/14 05:11:13;;;;;;;10.68;3.00;;;29.50;99.90;;;32.09;52.58;101182.66;5000696;28;20529;-77
2022/08/14 05:13:42;;;;;;;12.07;3.13;;;29.80;99.90;;;32.61;51.93;101188.53;4948921;28;20041;-78
2022/08/14 05:16:09;;;;;;;18.00;3.00;;;30.50;99.90;;;33.73;49.50;101183.34;4971216;28;20033;-77
2022/08/14 05:18:36;;;;;;;12.82;3.05;;;31.10;99.90;;;34.41;47.57;101189.22;4973013;28;20477;-78
2022/08/14 05:21:09;;;;;;;8.07;2.90;;;31.40;98.90;;;34.62;46.97;101193.50;4963153;28;20057;-78
2022/08/14 05:23:39;;;;;;;11.02;2.78;;;31.60;99.10;;;34.80;46.37;101192.81;4975045;28;20041;-78
2022/08/14 05:26:11;;;;;;;12.13;3.15;;;32.10;98.80;;;35.72;44.69;101198.59;4977915;28;20050;-78
2022/08/14 05:28:43;;;;;;;9.05;3.15;;;31.90;97.30;;;34.48;46.55;101205.59;4967082;28;20548;-78
2022/08/14 05:31:16;;;;;;;13.13;2.97;;;32.20;97.30;;;35.27;45.04;101208.88;4964452;28;20472;-78
2022/08/14 05:33:43;;;;;;;11.88;2.75;;;32.40;97.10;;;35.69;44.42;101218.22;4981690;28;20036;-77
2022/08/14 05:36:12;;;;;;;10.35;2.53;;;32.70;96.00;;;36.29;43.17;101216.72;4997909;28;20034;-78
2022/08/14 05:38:49;;;;;;;10.70;2.55;;;33.10;96.40;;;37.14;42.12;101218.47;4997211;28;20081;-78
2022/08/14 05:41:18;;;;;;;11.30;2.97;;;33.20;94.60;;;36.60;42.07;101214.81;4967576;28;20494;-78
2022/08/14 05:43:46;;;;;;;11.20;2.75;;;33.50;94.90;;;37.24;40.82;101218.75;4970769;28;20026;-78
2022/08/14 05:46:17;;;;;;;9.77;2.95;;;33.50;94.40;;;37.24;40.99;101220.66;4998005;28;20030;-77
2022/08/14 05:48:53;;;;;;;8.05;2.70;;;33.60;94.10;;;37.35;40.07;101233.56;4978143;28;20045;-77
2022/08/14 05:51:20;;;;;;;13.05;2.63;;;34.00;94.50;;;38.24;39.42;101240.81;4984928;28;20347;-78
2022/08/14 05:53:47;;;;;;;14.63;2.92;;;34.50;93.30;;;38.47;38.86;101235.22;4975324;28;20049;-78
2022/08/14 05:56:13;;;;;;;9.48;2.53;;;34.80;92.30;;;38.77;37.69;101245.16;4977584;28;20033;-78
2022/08/14 05:58:39;;;;;;;9.88;2.95;;;34.30;92.60;;;37.16;40.47;101246.53;4975503;28;20569;-78
2022/08/14 06:01:12;;;;;;;7.05;2.38;;;33.90;92.80;;;36.34;41.26;101238.78;5004062;28;20970;-79
2022/08/14 06:03:38;;;;;;;9.45;2.63;;;34.10;93.40;;;37.74;39.41;101236.69;4937015;28;20037;-78
2022/08/14 06:06:05;;;;;;;13.85;2.53;;;34.60;93.00;;;38.82;38.51;101236.19;4966875;28;20144;-78
2022/08/14 06:08:31;;;;;;;8.43;2.50;;;35.00;92.10;;;38.71;37.99;101232.41;4971156;28;20029;-78
2022/08/14 06:11:04;;;;;;;11.35;2.42;;;35.00;91.80;;;38.06;38.08;101234.41;4971196;28;20085;-79
2022/08/14 06:13:33;;;;;;;8.50;2.67;;;35.30;91.30;;;38.66;38.13;101229.53;4945635;28;20034;-78
2022/08/14 06:15:59;;;;;;;11.23;2.58;;;35.00;90.60;;;37.33;39.18;101228.28;4963249;28;21019;-78
2022/08/14 06:18:32;;;;;;;12.25;2.40;;;34.80;91.10;;;37.50;39.04;101227.59;4986159;28;20038;-78
2022/08/14 06:20:58;;;;;;;8.65;2.45;;;34.40;91.10;;;36.69;39.84;101221.69;4973139;28;20029;-79
2022/08/14 06:23:23;;;;;;;6.75;2.20;;;34.40;90.80;;;36.11;41.39;101209.31;4987494;28;20103;-78
2022/08/14 06:25:49;;;;;;;8.20;2.33;;;34.00;91.40;;;35.86;41.47;101206.66;4989451;28;20072;-78
2022/08/14 06:28:23;;;;;;;7.10;2.50;;;34.30;91.30;;;37.08;39.59;101208.41;4953518;28;20045;-77
2022/08/14 06:30:49;;;;;;;9.63;2.80;;;34.60;91.00;;;36.74;39.22;101197.16;4987942;28;21635;-79
2022/08/14 06:33:17;;;;;;;9.00;2.33;;;34.80;90.80;;;37.39;38.58;101206.44;4980882;28;20779;-78
2022/08/14 06:35:44;;;;;;;7.35;2.33;;;35.50;91.00;;;38.57;37.51;101202.44;5001554;28;20040;-78
2022/08/14 06:38:19;;;;;;;10.60;2.60;;;35.70;88.60;;;37.91;37.98;101207.38;5005147;28;20057;-78
2022/08/14 06:40:46;;;;;;;4.90;2.13;;;35.80;88.20;;;36.79;39.39;101200.00;4999374;28;20142;-78
2022/08/14 06:43:17;;;;;;;6.25;2.25;;;36.10;88.80;;;38.16;38.27;101189.78;4972901;28;20223;-78
2022/08/14 06:45:46;;;;;;;8.43;2.30;;;36.60;87.00;;;38.61;36.85;101185.44;4982269;28;20197;-79
2022/08/14 06:48:21;;;;;;;9.07;2.33;;;36.80;85.80;;;38.49;37.25;101188.22;4977922;28;20653;-79
2022/08/14 06:50:48;;;;;;;4.78;2.05;;;36.90;84.50;;;37.66;38.07;101179.34;4962364;28;20038;-79
2022/08/14 06:53:15;;;;;;;7.63;2.33;;;36.80;85.10;;;37.94;37.94;101171.16;4978326;28;20035;-80
2022/08/14 06:55:42;;;;;;;14.68;2.33;;;36.80;84.10;;;37.74;38.06;101174.31;4982139;28;20107;-77
2022/08/14 06:58:14;;;;;;;6.82;2.72;;;36.40;84.50;;;36.88;38.86;101173.91;4978427;28;20145;-78
2022/08/14 07:05:44;;;;;;;9.10;2.83;;;36.00;84.40;;;36.40;39.72;101165.75;4998393;28;20068;-78
2022/08/14 07:06:16;;;;;;;11.23;2.58;;;36.00;83.90;;;36.08;39.78;101169.50;4998347;28;20412;-77
2022/08/14 07:08:43;;;;;;;6.35;2.55;;;35.90;84.20;;;36.26;39.25;101165.91;4954269;28;20041;-78
2022/08/14 07:11:10;;;;;;;6.25;2.10;;;36.10;83.70;;;36.71;38.82;101161.94;4998619;28;20025;-78
2022/08/14 07:13:38;;;;;;;6.97;2.40;;;36.20;84.90;;;36.95;38.94;101162.81;5004476;28;20120;-78
2022/08/14 07:16:05;;;;;;;6.72;2.40;;;36.20;84.20;;;36.28;39.88;101160.22;4981317;28;20052;-78
2022/08/14 07:18:33;;;;;;;12.60;2.63;;;36.30;84.50;;;36.82;39.03;101152.88;5010128;28;20045;-79
2022/08/14 07:21:02;;;;;;;9.52;2.53;;;36.30;83.80;;;36.41;39.98;101153.69;4997210;28;20033;-77
2022/08/14 07:23:28;;;;;;;7.55;2.60;;;36.40;83.00;;;36.70;39.13;101144.66;5006754;28;20034;-78
2022/08/14 07:25:56;;;;;;;6.30;2.30;;;36.60;83.10;;;36.59;38.54;101147.31;4995396;28;20030;-78
2022/08/14 07:28:25;;;;;;;16.95;2.28;;;36.60;84.30;;;36.22;39.36;101144.69;5002755;28;20026;-78
2022/08/14 07:30:56;;;;;;;12.55;2.20;;;36.70;82.40;;;36.83;38.66;101146.34;4974580;28;20495;-77
2022/08/14 07:33:25;;;;;;;10.02;2.30;;;36.50;81.70;;;35.87;39.72;101139.84;4962165;28;20033;-77
2022/08/14 07:35:53;;;;;;;9.38;2.60;;;36.30;82.80;;;35.86;40.38;101128.03;4976507;28;20059;-80
2022/08/14 07:38:21;;;;;;;10.80;2.58;;;36.30;82.00;;;36.26;39.47;101132.19;4974581;28;20029;-77
2022/08/14 07:40:50;;;;;;;10.23;2.58;;;36.50;81.90;;;35.96;39.26;101130.22;5007206;28;20037;-78
2022/08/14 07:43:16;;;;;;;7.43;2.15;;;36.40;80.30;;;35.52;39.47;101122.06;4985185;28;20034;-78
2022/08/14 07:45:43;;;;;;;4.82;2.55;;;36.40;81.00;;;35.72;38.41;101116.44;4969040;28;20124;-78
2022/08/14 07:48:11;;;;;;;6.30;2.60;;;36.30;81.10;;;35.99;38.37;101121.56;4975885;28;20042;-78
2022/08/14 07:50:38;;;;;;;8.57;2.45;;;36.00;80.10;;;35.41;39.11;101119.28;4963715;28;20042;-78
2022/08/14 07:53:08;;;;;;;11.95;2.45;;;35.70;80.10;;;35.20;39.34;101107.66;4969167;28;20056;-78
2022/08/14 07:55:42;;;;;;;9.55;2.33;;;35.90;81.60;;;35.89;38.62;101102.91;5006642;28;20120;-78
2022/08/14 07:58:08;;;;;;;8.30;2.35;;;36.10;80.70;;;35.75;39.28;101109.66;4996721;28;20045;-78
2022/08/14 08:00:34;;;;;;;8.63;2.70;;;35.90;79.10;;;34.72;39.78;101097.34;4972636;28;20034;-78
2022/08/14 08:03:00;;;;;;;12.07;2.80;;;35.30;81.40;;;34.33;40.62;101084.78;5004899;28;20041;-78
2022/08/14 08:05:26;;;;;;;12.18;2.55;;;34.60;81.50;;;33.59;41.79;101087.84;4976566;28;20155;-78
2022/08/14 08:07:53;;;;;;;4.07;2.33;;;34.40;82.80;;;33.40;42.19;101091.44;4977148;28;20108;-78
2022/08/14 08:10:31;;;;;;;8.38;2.33;;;34.40;83.40;;;33.94;41.13;101092.94;4990173;28;20469;-78
2022/08/14 08:13:07;;;;;;;11.13;2.65;;;34.50;84.00;;;34.31;41.54;101098.66;4988265;28;20120;-77
2022/08/14 08:15:40;;;;;;;5.22;2.40;;;34.70;84.20;;;34.73;40.53;101096.28;4965793;28;20033;-77
2022/08/14 08:18:09;;;;;;;7.18;2.28;;;34.90;82.80;;;34.88;40.55;101088.59;4997824;28;20038;-77
2022/08/14 08:20:42;;;;;;;8.65;2.30;;;35.20;83.00;;;35.09;40.04;101094.72;4996427;28;20120;-77
2022/08/14 08:23:08;;;;;;;8.40;2.53;;;35.20;82.00;;;34.80;40.63;101091.59;5003488;28;20046;-78
2022/08/14 08:25:39;;;;;;;14.93;2.08;;;35.00;80.90;;;34.48;40.36;101094.34;4974510;28;20040;-78
2022/08/14 08:28:14;;;;;;;6.72;2.25;;;34.60;81.40;;;33.65;41.06;101092.44;5018254;28;20026;-78
2022/08/14 08:30:50;;;;;;;9.55;2.33;;;34.20;83.60;;;33.66;42.25;101091.38;4988166;28;20073;-78
2022/08/14 08:33:22;;;;;;;10.43;1.95;;;34.40;83.20;;;34.33;40.99;101092.97;4977562;28;20117;-78
2022/08/14 08:35:49;;;;;;;7.75;2.10;;;34.10;82.70;;;33.76;41.34;101090.94;4978005;28;20044;-78
2022/08/14 08:38:22;;;;;;;10.60;2.42;;;33.70;83.60;;;32.93;42.83;101086.00;5009854;28;20060;-78
2022/08/14 08:40:52;;;;;;;7.57;2.03;;;33.20;84.50;;;32.50;43.49;101081.75;4964634;28;20481;-77
2022/08/14 08:43:27;;;;;;;12.05;2.00;;;32.90;86.00;;;32.48;44.08;101072.97;4990043;28;20056;-78
2022/08/14 08:46:08;;;;;;;16.20;2.30;;;32.60;85.80;;;32.05;44.09;101067.84;4972174;28;20058;-78
2022/08/14 08:48:56;;;;;;;7.80;2.20;;;32.20;86.30;;;31.43;44.53;101072.38;4988389;28;20033;-77
2022/08/14 08:51:37;;;;;;;7.07;2.35;;;31.70;86.80;;;30.89;45.08;101064.00;4965706;28;20055;-77
2022/08/14 08:54:09;;;;;;;12.52;2.00;;;31.50;87.90;;;31.09;45.41;101059.56;4991772;28;20044;-77
2022/08/14 08:56:49;;;;;;;7.07;2.13;;;31.30;88.70;;;30.92;46.02;101058.19;4991731;28;20074;-77
2022/08/14 08:59:28;;;;;;;11.55;2.00;;;31.40;89.50;;;31.16;46.16;101067.75;4977218;28;20037;-78
2022/08/14 09:02:02;;;;;;;6.90;2.10;;;31.20;90.00;;;30.80;47.04;101060.56;4978116;28;20045;-78
2022/08/14 09:04:34;;;;;;;6.53;2.13;;;31.30;90.70;;;31.14;48.22;101064.41;4998563;28;20741;-78
2022/08/14 09:07:00;;;;;;;10.77;2.00;;;31.20;89.10;;;30.69;46.90;101047.50;5006967;28;20030;-78
2022/08/14 09:09:32;;;;;;;4.93;1.83;;;31.20;90.10;;;30.59;48.28;101050.56;4981173;28;20477;-77
2022/08/14 09:12:02;;;;;;;11.07;2.30;;;30.60;90.20;;;29.62;48.90;101043.59;5000060;28;20030;-78
2022/08/14 09:14:30;;;;;;;9.45;2.10;;;30.60;90.80;;;29.94;49.41;101052.38;4985240;28;20053;-77
2022/08/14 09:16:58;;;;;;;4.47;1.83;;;30.60;91.10;;;29.70;49.11;101059.81;4990025;28;20088;-77
2022/08/14 09:19:26;;;;;;;5.95;2.00;;;30.50;91.20;;;29.80;49.59;101052.19;5029417;28;20021;-77
2022/08/14 09:21:53;;;;;;;11.65;2.38;;;30.40;91.10;;;29.90;49.62;101048.38;5000818;28;20033;-78
2022/08/14 09:24:20;;;;;;;7.05;1.95;;;30.30;90.60;;;29.47;49.98;101043.63;4975354;28;20041;-78
2022/08/14 09:26:47;;;;;;;7.95;2.08;;;30.20;90.80;;;29.40;49.57;101039.97;4988857;28;20091;-77
2022/08/14 09:29:13;;;;;;;8.93;2.30;;;30.10;90.30;;;29.37;49.16;101026.78;4985225;28;20164;-78
2022/08/14 09:31:53;;;;;;;13.70;2.13;;;30.00;91.10;;;29.64;49.51;101026.09;4997569;28;20037;-79
2022/08/14 09:35:29;;;;;;;6.53;2.20;;;30.10;90.60;;;29.57;47.96;101018.94;4958221;28;20038;-77
2022/08/14 09:38:17;;;;;;;11.95;2.15;;;30.20;90.50;;;29.74;47.54;101022.28;4898556;28;20053;-77
2022/08/14 09:41:05;;;;;;;4.97;2.22;;;30.20;90.00;;;29.47;47.37;101019.19;5002122;28;20029;-78
2022/08/14 09:43:59;;;;;;;12.60;2.10;;;30.30;88.90;;;29.74;46.29;101019.56;5026689;28;20056;-78
2022/08/14 09:46:30;;;;;;;7.93;1.80;;;30.30;87.90;;;29.73;46.41;101023.31;4967017;28;20511;-78
2022/08/14 09:49:09;;;;;;;7.35;2.00;;;30.10;87.50;;;29.31;46.64;101019.38;4969177;28;20038;-77
2022/08/14 09:51:43;;;;;;;5.75;1.70;;;30.00;88.00;;;29.40;46.37;101013.69;4981781;28;20061;-77
2022/08/14 09:54:11;;;;;;;16.25;1.63;;;30.00;87.50;;;29.35;46.65;101004.44;5008126;28;20044;-78
2022/08/14 09:56:53;;;;;;;6.13;1.60;;;30.00;88.40;;;29.60;46.07;101010.41;5000731;28;20072;-77
2022/08/14 09:59:23;;;;;;;12.85;1.80;;;30.10;88.00;;;29.74;45.89;101003.28;4967691;28;20110;-78
2022/08/14 10:01:52;;;;;;;13.57;1.48;;;30.20;87.40;;;29.69;45.66;101021.97;4955674;28;20517;-78
2022/08/14 10:04:27;;;;;;;12.90;1.85;;;30.10;87.20;;;29.59;45.90;101011.41;4993419;28;20038;-77
2022/08/14 10:06:57;;;;;;;3.23;1.47;;;30.10;86.80;;;29.50;45.73;101007.97;5009341;28;20113;-77
2022/08/14 10:09:23;;;;;;;7.43;1.65;;;30.10;86.80;;;29.58;45.45;101016.00;5006209;28;20049;-77
2022/08/14 10:11:56;;;;;;;9.35;1.50;;;30.20;87.20;;;29.51;45.36;101009.66;4998375;28;20034;-77
2022/08/14 10:14:28;;;;;;;7.25;1.70;;;30.20;87.20;;;29.74;46.00;100998.72;4983889;28;20044;-77
2022/08/14 10:16:56;;;;;;;7.20;2.05;;;30.30;87.50;;;29.75;45.53;101004.97;5024341;28;20036;-77
2022/08/14 10:19:25;;;;;;;6.97;2.00;;;30.50;87.70;;;30.22;44.99;101004.44;5000360;28;20048;-77
2022/08/14 10:22:09;;;;;;;6.90;1.88;;;30.50;87.00;;;30.09;44.59;101022.44;4991325;28;20037;-78
2022/08/14 10:24:40;;;;;;;9.10;1.95;;;30.40;86.60;;;29.60;45.29;101000.38;4974092;28;20844;-78
2022/08/14 10:27:25;;;;;;;7.80;1.70;;;30.20;87.50;;;29.59;45.92;101009.56;4950255;28;20041;-78
2022/08/14 10:29:54;;;;;;;8.60;1.70;;;30.20;88.40;;;29.67;46.66;100986.88;4995559;28;20047;-77
2022/08/14 10:32:21;;;;;;;5.38;1.67;;;30.20;88.10;;;29.75;46.54;100994.13;4983571;28;20116;-77